sensor_id;sensor_type;location;lat;lon;timestamp;temperature;humidity
11140;DHT22;5624;49.388;11.350;2023-05-10T00:00:05;13.80;61.20
11140;DHT22;5624;49.388;11.350;2023-05-10T00:02:31;13.90;61.20
11140;DHT22;5624;49.388;11.350;2023-05-10T00:04:56;13.80;62.10
11140;DHT22;5624;49.388;11.350;2023-05-10T00:07:22;13.70;62.40
11140;DHT22;5624;49.388;11.350;2023-05-10T00:09:48;13.70;63.00
11140;DHT22;5624;49.388;11.350;2023-05-10T00:12:13;13.60;62.70
11140;DHT22;5624;49.388;11.350;2023-05-10T00:14:39;13.70;62.50
11140;DHT22;5624;49.388;11.350;2023-05-10T00:17:05;13.60;63.10
11140;DHT22;5624;49.388;11.350;2023-05-10T00:19:30;13.60;63.30
11140;DHT22;5624;49.388;11.350;2023-05-10T00:21:56;13.60;63.90
11140;DHT22;5624;49.388;11.350;2023-05-10T00:24:21;13.70;63.10
11140;DHT22;5624;49.388;11.350;2023-05-10T00:26:47;13.80;63.20
11140;DHT22;5624;49.388;11.350;2023-05-10T00:29:12;13.70;64.10
11140;DHT22;5624;49.388;11.350;2023-05-10T00:31:38;13.60;64.30
11140;DHT22;5624;49.388;11.350;2023-05-10T00:34:04;13.60;64.70
11140;DHT22;5624;49.388;11.350;2023-05-10T00:36:29;13.50;65.10
11140;DHT22;5624;49.388;11.350;2023-05-10T00:38:56;13.60;64.00
11140;DHT22;5624;49.388;11.350;2023-05-10T00:41:22;13.50;64.70
11140;DHT22;5624;49.388;11.350;2023-05-10T00:43:48;13.60;64.70
11140;DHT22;5624;49.388;11.350;2023-05-10T00:46:14;13.60;64.70
11140;DHT22;5624;49.388;11.350;2023-05-10T00:48:40;13.60;64.90
11140;DHT22;5624;49.388;11.350;2023-05-10T00:51:06;13.60;64.50
11140;DHT22;5624;49.388;11.350;2023-05-10T00:53:31;13.70;64.50
11140;DHT22;5624;49.388;11.350;2023-05-10T00:55:58;13.60;65.40
11140;DHT22;5624;49.388;11.350;2023-05-10T00:58:24;13.60;65.30
11140;DHT22;5624;49.388;11.350;2023-05-10T01:00:54;13.60;64.90
11140;DHT22;5624;49.388;11.350;2023-05-10T01:03:20;13.60;64.30
11140;DHT22;5624;49.388;11.350;2023-05-10T01:05:46;13.50;65.30
11140;DHT22;5624;49.388;11.350;2023-05-10T01:08:12;13.50;65.60
11140;DHT22;5624;49.388;11.350;2023-05-10T01:10:37;13.50;65.90
11140;DHT22;5624;49.388;11.350;2023-05-10T01:13:03;13.50;66.40
11140;DHT22;5624;49.388;11.350;2023-05-10T01:15:29;13.40;66.70
11140;DHT22;5624;49.388;11.350;2023-05-10T01:17:56;13.40;68.10
11140;DHT22;5624;49.388;11.350;2023-05-10T01:20:22;13.40;67.90
11140;DHT22;5624;49.388;11.350;2023-05-10T01:36:23;13.40;76.10
11140;DHT22;5624;49.388;11.350;2023-05-10T01:39:07;13.40;77.10
11140;DHT22;5624;49.388;11.350;2023-05-10T01:41:44;13.40;78.50
11140;DHT22;5624;49.388;11.350;2023-05-10T01:44:40;13.40;80.20
11140;DHT22;5624;49.388;11.350;2023-05-10T01:47:14;13.40;81.60
11140;DHT22;5624;49.388;11.350;2023-05-10T01:49:50;13.40;83.30
11140;DHT22;5624;49.388;11.350;2023-05-10T01:52:18;13.40;84.60
11140;DHT22;5624;49.388;11.350;2023-05-10T01:54:50;13.40;85.50
11140;DHT22;5624;49.388;11.350;2023-05-10T01:57:18;13.40;86.40
11140;DHT22;5624;49.388;11.350;2023-05-10T01:59:45;13.30;87.80
11140;DHT22;5624;49.388;11.350;2023-05-10T02:02:15;13.30;89.00
11140;DHT22;5624;49.388;11.350;2023-05-10T02:04:42;13.30;89.80
11140;DHT22;5624;49.388;11.350;2023-05-10T02:07:09;13.20;90.20
11140;DHT22;5624;49.388;11.350;2023-05-10T02:09:36;13.20;91.00
11140;DHT22;5624;49.388;11.350;2023-05-10T02:12:04;13.10;92.00
11140;DHT22;5624;49.388;11.350;2023-05-10T02:14:33;13.10;92.90
11140;DHT22;5624;49.388;11.350;2023-05-10T02:16:59;13.00;93.60
11140;DHT22;5624;49.388;11.350;2023-05-10T02:19:26;13.00;94.40
11140;DHT22;5624;49.388;11.350;2023-05-10T02:21:54;13.00;94.80
11140;DHT22;5624;49.388;11.350;2023-05-10T02:24:22;13.10;95.70
11140;DHT22;5624;49.388;11.350;2023-05-10T02:26:50;13.10;95.50
11140;DHT22;5624;49.388;11.350;2023-05-10T02:29:16;13.10;95.90
11140;DHT22;5624;49.388;11.350;2023-05-10T02:31:43;13.10;96.70
11140;DHT22;5624;49.388;11.350;2023-05-10T02:34:10;13.10;96.90
11140;DHT22;5624;49.388;11.350;2023-05-10T02:36:38;13.10;97.00
11140;DHT22;5624;49.388;11.350;2023-05-10T02:39:04;13.10;97.60
11140;DHT22;5624;49.388;11.350;2023-05-10T02:41:34;13.10;97.80
11140;DHT22;5624;49.388;11.350;2023-05-10T02:44:02;13.10;98.40
11140;DHT22;5624;49.388;11.350;2023-05-10T02:46:28;13.00;98.50
11140;DHT22;5624;49.388;11.350;2023-05-10T02:48:54;13.00;99.00
11140;DHT22;5624;49.388;11.350;2023-05-10T02:51:20;13.00;99.50
11140;DHT22;5624;49.388;11.350;2023-05-10T02:53:49;12.90;99.90
11140;DHT22;5624;49.388;11.350;2023-05-10T02:56:24;13.00;99.90
11140;DHT22;5624;49.388;11.350;2023-05-10T02:58:51;12.90;99.90
11140;DHT22;5624;49.388;11.350;2023-05-10T03:01:17;12.80;99.90
11140;DHT22;5624;49.388;11.350;2023-05-10T03:03:42;12.80;99.90
11140;DHT22;5624;49.388;11.350;2023-05-10T03:06:08;12.90;99.90
11140;DHT22;5624;49.388;11.350;2023-05-10T03:08:35;12.80;99.90
11140;DHT22;5624;49.388;11.350;2023-05-10T03:16:37;12.90;99.90
11140;DHT22;5624;49.388;11.350;2023-05-10T03:19:17;12.90;99.90
11140;DHT22;5624;49.388;11.350;2023-05-10T03:21:49;12.90;99.90
11140;DHT22;5624;49.388;11.350;2023-05-10T03:24:16;12.90;99.90
11140;DHT22;5624;49.388;11.350;2023-05-10T03:26:44;12.90;99.90
11140;DHT22;5624;49.388;11.350;2023-05-10T03:29:12;12.90;99.90
11140;DHT22;5624;49.388;11.350;2023-05-10T03:31:39;12.90;99.90
11140;DHT22;5624;49.388;11.350;2023-05-10T03:34:05;12.90;99.90
11140;DHT22;5624;49.388;11.350;2023-05-10T03:36:31;12.90;99.90
11140;DHT22;5624;49.388;11.350;2023-05-10T03:38:57;12.90;99.90
11140;DHT22;5624;49.388;11.350;2023-05-10T03:41:23;12.90;99.90
11140;DHT22;5624;49.388;11.350;2023-05-10T03:43:49;12.90;99.90
11140;DHT22;5624;49.388;11.350;2023-05-10T03:46:14;12.90;99.90
11140;DHT22;5624;49.388;11.350;2023-05-10T03:48:40;13.00;99.90
11140;DHT22;5624;49.388;11.350;2023-05-10T03:51:06;12.90;99.20
11140;DHT22;5624;49.388;11.350;2023-05-10T03:53:31;12.80;99.30
11140;DHT22;5624;49.388;11.350;2023-05-10T03:55:57;12.70;99.80
11140;DHT22;5624;49.388;11.350;2023-05-10T03:58:22;12.70;99.90
11140;DHT22;5624;49.388;11.350;2023-05-10T04:00:48;12.60;99.90
11140;DHT22;5624;49.388;11.350;2023-05-10T04:03:14;12.70;99.90
11140;DHT22;5624;49.388;11.350;2023-05-10T04:05:39;12.70;99.90
11140;DHT22;5624;49.388;11.350;2023-05-10T04:08:06;12.60;99.90
11140;DHT22;5624;49.388;11.350;2023-05-10T04:10:32;12.50;99.90
11140;DHT22;5624;49.388;11.350;2023-05-10T04:12:58;12.50;99.90
11140;DHT22;5624;49.388;11.350;2023-05-10T04:15:23;12.50;99.90
11140;DHT22;5624;49.388;11.350;2023-05-10T04:17:50;12.50;99.90
11140;DHT22;5624;49.388;11.350;2023-05-10T04:20:16;12.50;99.90
11140;DHT22;5624;49.388;11.350;2023-05-10T04:22:42;12.50;99.90
11140;DHT22;5624;49.388;11.350;2023-05-10T04:25:08;12.60;99.90
11140;DHT22;5624;49.388;11.350;2023-05-10T04:27:33;12.50;99.90
11140;DHT22;5624;49.388;11.350;2023-05-10T04:29:59;12.50;99.90
11140;DHT22;5624;49.388;11.350;2023-05-10T04:32:24;12.60;99.90
11140;DHT22;5624;49.388;11.350;2023-05-10T04:34:50;12.60;99.90
11140;DHT22;5624;49.388;11.350;2023-05-10T04:37:17;12.60;99.90
11140;DHT22;5624;49.388;11.350;2023-05-10T04:39:43;12.60;99.90
11140;DHT22;5624;49.388;11.350;2023-05-10T04:42:09;12.60;99.90
11140;DHT22;5624;49.388;11.350;2023-05-10T04:44:35;12.60;99.90
11140;DHT22;5624;49.388;11.350;2023-05-10T04:47:01;12.60;99.90
11140;DHT22;5624;49.388;11.350;2023-05-10T04:49:28;12.60;99.90
11140;DHT22;5624;49.388;11.350;2023-05-10T04:51:53;12.60;99.90
11140;DHT22;5624;49.388;11.350;2023-05-10T04:54:19;12.60;99.90
11140;DHT22;5624;49.388;11.350;2023-05-10T04:56:44;12.60;99.90
11140;DHT22;5624;49.388;11.350;2023-05-10T04:59:10;12.60;99.90
11140;DHT22;5624;49.388;11.350;2023-05-10T05:01:35;12.60;99.90
11140;DHT22;5624;49.388;11.350;2023-05-10T05:04:01;12.60;99.90
11140;DHT22;5624;49.388;11.350;2023-05-10T05:06:27;12.60;99.90
11140;DHT22;5624;49.388;11.350;2023-05-10T05:08:52;12.70;99.90
11140;DHT22;5624;49.388;11.350;2023-05-10T05:11:18;12.70;99.90
11140;DHT22;5624;49.388;11.350;2023-05-10T05:13:44;12.80;99.90
11140;DHT22;5624;49.388;11.350;2023-05-10T05:16:09;12.80;99.70
11140;DHT22;5624;49.388;11.350;2023-05-10T05:18:36;12.80;99.10
11140;DHT22;5624;49.388;11.350;2023-05-10T05:21:02;12.80;99.60
11140;DHT22;5624;49.388;11.350;2023-05-10T05:23:28;12.80;98.90
11140;DHT22;5624;49.388;11.350;2023-05-10T05:25:54;12.80;98.70
11140;DHT22;5624;49.388;11.350;2023-05-10T05:28:22;12.90;98.30
11140;DHT22;5624;49.388;11.350;2023-05-10T05:30:48;12.80;98.30
11140;DHT22;5624;49.388;11.350;2023-05-10T05:33:14;12.80;98.10
11140;DHT22;5624;49.388;11.350;2023-05-10T05:35:41;12.80;98.30
11140;DHT22;5624;49.388;11.350;2023-05-10T05:38:08;12.70;98.20
11140;DHT22;5624;49.388;11.350;2023-05-10T05:40:33;12.70;97.90
11140;DHT22;5624;49.388;11.350;2023-05-10T05:42:59;12.60;97.40
11140;DHT22;5624;49.388;11.350;2023-05-10T05:45:24;12.60;97.40
11140;DHT22;5624;49.388;11.350;2023-05-10T05:47:50;12.70;97.40
11140;DHT22;5624;49.388;11.350;2023-05-10T05:50:16;13.10;98.10
11140;DHT22;5624;49.388;11.350;2023-05-10T05:52:41;13.50;96.80
11140;DHT22;5624;49.388;11.350;2023-05-10T05:55:07;13.80;92.60
11140;DHT22;5624;49.388;11.350;2023-05-10T05:57:32;14.10;90.50
11140;DHT22;5624;49.388;11.350;2023-05-10T05:59:58;14.30;89.00
11140;DHT22;5624;49.388;11.350;2023-05-10T06:02:24;14.40;88.60
11140;DHT22;5624;49.388;11.350;2023-05-10T06:04:50;14.40;87.70
11140;DHT22;5624;49.388;11.350;2023-05-10T06:07:15;14.30;87.20
11140;DHT22;5624;49.388;11.350;2023-05-10T06:09:41;14.20;87.90
11140;DHT22;5624;49.388;11.350;2023-05-10T06:12:07;14.20;87.00
11140;DHT22;5624;49.388;11.350;2023-05-10T06:14:32;14.20;88.20
11140;DHT22;5624;49.388;11.350;2023-05-10T06:16:58;14.10;87.60
11140;DHT22;5624;49.388;11.350;2023-05-10T06:19:25;14.10;87.20
11140;DHT22;5624;49.388;11.350;2023-05-10T06:21:51;14.20;87.50
11140;DHT22;5624;49.388;11.350;2023-05-10T06:24:17;14.20;86.00
11140;DHT22;5624;49.388;11.350;2023-05-10T06:26:42;14.40;87.60
11140;DHT22;5624;49.388;11.350;2023-05-10T06:29:08;14.70;85.80
11140;DHT22;5624;49.388;11.350;2023-05-10T06:31:34;15.00;83.80
11140;DHT22;5624;49.388;11.350;2023-05-10T06:33:59;15.30;81.70
11140;DHT22;5624;49.388;11.350;2023-05-10T06:36:25;15.20;81.10
11140;DHT22;5624;49.388;11.350;2023-05-10T06:38:51;15.00;81.40
11140;DHT22;5624;49.388;11.350;2023-05-10T06:41:17;15.10;81.80
11140;DHT22;5624;49.388;11.350;2023-05-10T06:43:42;15.30;81.40
11140;DHT22;5624;49.388;11.350;2023-05-10T06:46:08;15.40;82.10
11140;DHT22;5624;49.388;11.350;2023-05-10T06:48:34;15.50;80.40
11140;DHT22;5624;49.388;11.350;2023-05-10T06:51:00;15.50;81.40
11140;DHT22;5624;49.388;11.350;2023-05-10T06:53:26;15.50;80.00
11140;DHT22;5624;49.388;11.350;2023-05-10T06:55:51;15.40;80.30
11140;DHT22;5624;49.388;11.350;2023-05-10T06:58:17;15.40;80.20
11140;DHT22;5624;49.388;11.350;2023-05-10T07:00:42;15.40;78.40
11140;DHT22;5624;49.388;11.350;2023-05-10T07:03:09;15.50;78.90
11140;DHT22;5624;49.388;11.350;2023-05-10T07:05:36;15.60;79.20
11140;DHT22;5624;49.388;11.350;2023-05-10T07:08:01;15.80;79.30
11140;DHT22;5624;49.388;11.350;2023-05-10T07:10:27;16.00;77.30
11140;DHT22;5624;49.388;11.350;2023-05-10T07:12:53;16.40;76.10
11140;DHT22;5624;49.388;11.350;2023-05-10T07:15:18;16.50;75.40
11140;DHT22;5624;49.388;11.350;2023-05-10T07:17:44;16.60;76.20
11140;DHT22;5624;49.388;11.350;2023-05-10T07:20:10;16.60;74.40
11140;DHT22;5624;49.388;11.350;2023-05-10T07:22:36;16.50;74.50
11140;DHT22;5624;49.388;11.350;2023-05-10T07:25:02;16.30;74.30
11140;DHT22;5624;49.388;11.350;2023-05-10T07:27:28;16.10;74.30
11140;DHT22;5624;49.388;11.350;2023-05-10T07:29:53;16.20;75.20
11140;DHT22;5624;49.388;11.350;2023-05-10T07:32:20;16.20;75.10
11140;DHT22;5624;49.388;11.350;2023-05-10T07:34:45;16.20;74.80
11140;DHT22;5624;49.388;11.350;2023-05-10T07:37:11;16.30;75.70
11140;DHT22;5624;49.388;11.350;2023-05-10T07:39:37;16.40;73.60
11140;DHT22;5624;49.388;11.350;2023-05-10T07:42:02;16.10;74.60
11140;DHT22;5624;49.388;11.350;2023-05-10T07:44:28;16.30;75.10
11140;DHT22;5624;49.388;11.350;2023-05-10T07:46:53;16.30;72.10
11140;DHT22;5624;49.388;11.350;2023-05-10T07:49:19;16.40;72.90
11140;DHT22;5624;49.388;11.350;2023-05-10T07:51:45;16.30;71.90
11140;DHT22;5624;49.388;11.350;2023-05-10T07:54:10;16.40;72.60
11140;DHT22;5624;49.388;11.350;2023-05-10T07:56:36;16.60;70.80
11140;DHT22;5624;49.388;11.350;2023-05-10T07:59:03;16.60;72.10
11140;DHT22;5624;49.388;11.350;2023-05-10T08:01:31;16.60;71.40
11140;DHT22;5624;49.388;11.350;2023-05-10T08:03:57;16.40;70.00
11140;DHT22;5624;49.388;11.350;2023-05-10T08:06:23;16.40;72.20
11140;DHT22;5624;49.388;11.350;2023-05-10T08:08:49;16.50;72.70
11140;DHT22;5624;49.388;11.350;2023-05-10T08:11:19;16.60;71.30
11140;DHT22;5624;49.388;11.350;2023-05-10T08:13:46;16.50;72.00
11140;DHT22;5624;49.388;11.350;2023-05-10T08:16:12;16.50;72.30
11140;DHT22;5624;49.388;11.350;2023-05-10T08:18:38;16.20;70.20
11140;DHT22;5624;49.388;11.350;2023-05-10T08:21:04;15.80;72.50
11140;DHT22;5624;49.388;11.350;2023-05-10T08:23:30;15.30;73.20
11140;DHT22;5624;49.388;11.350;2023-05-10T08:25:56;15.00;73.90
11140;DHT22;5624;49.388;11.350;2023-05-10T08:28:21;14.70;75.90
11140;DHT22;5624;49.388;11.350;2023-05-10T08:30:47;14.70;76.50
11140;DHT22;5624;49.388;11.350;2023-05-10T08:33:13;14.80;76.30
11140;DHT22;5624;49.388;11.350;2023-05-10T08:35:38;15.00;78.70
11140;DHT22;5624;49.388;11.350;2023-05-10T08:38:04;15.00;78.40
11140;DHT22;5624;49.388;11.350;2023-05-10T08:40:30;15.20;77.60
11140;DHT22;5624;49.388;11.350;2023-05-10T08:42:59;15.20;75.40
11140;DHT22;5624;49.388;11.350;2023-05-10T08:45:32;15.40;76.00
11140;DHT22;5624;49.388;11.350;2023-05-10T08:47:59;15.40;75.50
11140;DHT22;5624;49.388;11.350;2023-05-10T08:50:25;15.50;74.20
11140;DHT22;5624;49.388;11.350;2023-05-10T08:52:53;15.70;74.90
11140;DHT22;5624;49.388;11.350;2023-05-10T08:55:20;15.80;75.60
11140;DHT22;5624;49.388;11.350;2023-05-10T08:57:48;16.20;73.50
11140;DHT22;5624;49.388;11.350;2023-05-10T09:00:14;16.40;72.50
11140;DHT22;5624;49.388;11.350;2023-05-10T09:02:42;16.70;71.10
11140;DHT22;5624;49.388;11.350;2023-05-10T09:05:08;16.90;70.50
11140;DHT22;5624;49.388;11.350;2023-05-10T09:07:35;17.40;68.70
11140;DHT22;5624;49.388;11.350;2023-05-10T09:10:01;17.90;65.90
11140;DHT22;5624;49.388;11.350;2023-05-10T09:12:27;18.20;63.60
11140;DHT22;5624;49.388;11.350;2023-05-10T09:14:52;18.60;63.30
11140;DHT22;5624;49.388;11.350;2023-05-10T09:17:19;19.00;62.80
11140;DHT22;5624;49.388;11.350;2023-05-10T09:19:46;19.30;61.60
11140;DHT22;5624;49.388;11.350;2023-05-10T09:22:12;19.30;60.80
11140;DHT22;5624;49.388;11.350;2023-05-10T09:24:38;19.30;59.20
11140;DHT22;5624;49.388;11.350;2023-05-10T09:27:07;19.10;60.50
11140;DHT22;5624;49.388;11.350;2023-05-10T09:29:42;19.00;60.60
11140;DHT22;5624;49.388;11.350;2023-05-10T09:32:08;19.10;59.50
11140;DHT22;5624;49.388;11.350;2023-05-10T09:34:34;19.60;60.40
11140;DHT22;5624;49.388;11.350;2023-05-10T09:37:05;19.60;57.10
11140;DHT22;5624;49.388;11.350;2023-05-10T09:39:35;19.30;57.30
11140;DHT22;5624;49.388;11.350;2023-05-10T09:42:08;18.80;57.80
11140;DHT22;5624;49.388;11.350;2023-05-10T09:44:35;18.10;60.00
11140;DHT22;5624;49.388;11.350;2023-05-10T09:47:04;17.80;63.90
11140;DHT22;5624;49.388;11.350;2023-05-10T09:49:30;17.20;66.40
11140;DHT22;5624;49.388;11.350;2023-05-10T09:52:04;16.80;70.20
11140;DHT22;5624;49.388;11.350;2023-05-10T09:54:30;16.30;74.10
11140;DHT22;5624;49.388;11.350;2023-05-10T09:56:56;15.80;75.50
11140;DHT22;5624;49.388;11.350;2023-05-10T09:59:22;15.60;78.30
11140;DHT22;5624;49.388;11.350;2023-05-10T10:01:50;15.40;78.30
11140;DHT22;5624;49.388;11.350;2023-05-10T10:04:17;15.30;78.20
11140;DHT22;5624;49.388;11.350;2023-05-10T10:06:42;15.20;78.50
11140;DHT22;5624;49.388;11.350;2023-05-10T10:09:09;15.20;79.20
11140;DHT22;5624;49.388;11.350;2023-05-10T10:11:38;15.00;80.20
11140;DHT22;5624;49.388;11.350;2023-05-10T10:14:04;15.00;79.70
11140;DHT22;5624;49.388;11.350;2023-05-10T10:16:30;15.00;80.40
11140;DHT22;5624;49.388;11.350;2023-05-10T10:18:57;14.90;79.80
11140;DHT22;5624;49.388;11.350;2023-05-10T10:21:24;15.10;81.40
11140;DHT22;5624;49.388;11.350;2023-05-10T10:23:49;15.20;81.00
11140;DHT22;5624;49.388;11.350;2023-05-10T10:26:17;15.40;80.60
11140;DHT22;5624;49.388;11.350;2023-05-10T10:34:26;15.40;82.20
11140;DHT22;5624;49.388;11.350;2023-05-10T10:36:54;15.70;79.80
11140;DHT22;5624;49.388;11.350;2023-05-10T10:39:20;15.80;81.00
11140;DHT22;5624;49.388;11.350;2023-05-10T10:41:55;15.90;79.70
11140;DHT22;5624;49.388;11.350;2023-05-10T10:44:33;15.80;78.40
11140;DHT22;5624;49.388;11.350;2023-05-10T10:47:05;15.90;79.10
11140;DHT22;5624;49.388;11.350;2023-05-10T10:54:51;16.90;76.50
11140;DHT22;5624;49.388;11.350;2023-05-10T10:57:18;17.40;71.20
11140;DHT22;5624;49.388;11.350;2023-05-10T10:59:45;18.10;74.10
11140;DHT22;5624;49.388;11.350;2023-05-10T11:05:00;19.40;66.40
11140;DHT22;5624;49.388;11.350;2023-05-10T11:07:26;19.80;64.90
11140;DHT22;5624;49.388;11.350;2023-05-10T11:09:51;20.00;64.30
11140;DHT22;5624;49.388;11.350;2023-05-10T11:12:17;20.00;62.80
11140;DHT22;5624;49.388;11.350;2023-05-10T11:14:43;20.10;62.60
11140;DHT22;5624;49.388;11.350;2023-05-10T11:17:26;20.30;65.00
11140;DHT22;5624;49.388;11.350;2023-05-10T11:20:09;20.50;61.00
11140;DHT22;5624;49.388;11.350;2023-05-10T11:22:52;20.10;63.30
11140;DHT22;5624;49.388;11.350;2023-05-10T11:25:19;19.90;62.60
11140;DHT22;5624;49.388;11.350;2023-05-10T11:27:47;19.80;61.70
11140;DHT22;5624;49.388;11.350;2023-05-10T11:30:14;19.90;63.90
11140;DHT22;5624;49.388;11.350;2023-05-10T11:32:40;20.20;61.70
11140;DHT22;5624;49.388;11.350;2023-05-10T11:35:10;20.00;62.00
11140;DHT22;5624;49.388;11.350;2023-05-10T11:37:36;19.20;61.80
11140;DHT22;5624;49.388;11.350;2023-05-10T11:40:02;19.00;61.40
11140;DHT22;5624;49.388;11.350;2023-05-10T11:42:29;18.50;63.50
11140;DHT22;5624;49.388;11.350;2023-05-10T11:44:55;18.00;66.00
11140;DHT22;5624;49.388;11.350;2023-05-10T11:47:21;17.90;66.10
11140;DHT22;5624;49.388;11.350;2023-05-10T11:49:48;17.70;70.10
11140;DHT22;5624;49.388;11.350;2023-05-10T11:52:13;18.00;67.70
11140;DHT22;5624;49.388;11.350;2023-05-10T11:54:55;18.10;66.60
11140;DHT22;5624;49.388;11.350;2023-05-10T11:57:25;18.10;68.90
11140;DHT22;5624;49.388;11.350;2023-05-10T11:59:54;18.10;63.60
11140;DHT22;5624;49.388;11.350;2023-05-10T12:02:21;18.10;66.00
11140;DHT22;5624;49.388;11.350;2023-05-10T12:04:47;18.20;66.00
11140;DHT22;5624;49.388;11.350;2023-05-10T12:07:13;18.10;66.50
11140;DHT22;5624;49.388;11.350;2023-05-10T12:09:43;18.00;66.40
11140;DHT22;5624;49.388;11.350;2023-05-10T12:12:11;17.90;65.50
11140;DHT22;5624;49.388;11.350;2023-05-10T12:14:40;18.10;64.70
11140;DHT22;5624;49.388;11.350;2023-05-10T12:17:06;18.10;66.60
11140;DHT22;5624;49.388;11.350;2023-05-10T12:19:39;18.40;64.80
11140;DHT22;5624;49.388;11.350;2023-05-10T12:22:05;18.40;62.80
11140;DHT22;5624;49.388;11.350;2023-05-10T12:24:34;18.20;62.60
11140;DHT22;5624;49.388;11.350;2023-05-10T12:27:04;18.30;62.20
11140;DHT22;5624;49.388;11.350;2023-05-10T12:29:30;18.50;62.60
11140;DHT22;5624;49.388;11.350;2023-05-10T12:31:58;18.80;61.90
11140;DHT22;5624;49.388;11.350;2023-05-10T12:34:31;19.00;61.40
11140;DHT22;5624;49.388;11.350;2023-05-10T12:36:57;19.20;61.20
11140;DHT22;5624;49.388;11.350;2023-05-10T12:39:24;19.40;59.60
11140;DHT22;5624;49.388;11.350;2023-05-10T12:41:50;19.50;59.70
11140;DHT22;5624;49.388;11.350;2023-05-10T12:44:16;19.60;57.40
11140;DHT22;5624;49.388;11.350;2023-05-10T12:46:42;19.50;58.10
11140;DHT22;5624;49.388;11.350;2023-05-10T12:49:08;19.40;59.00
11140;DHT22;5624;49.388;11.350;2023-05-10T12:51:34;19.20;59.20
11140;DHT22;5624;49.388;11.350;2023-05-10T12:54:00;19.00;60.00
11140;DHT22;5624;49.388;11.350;2023-05-10T12:56:26;18.70;60.80
11140;DHT22;5624;49.388;11.350;2023-05-10T12:58:51;18.40;61.10
11140;DHT22;5624;49.388;11.350;2023-05-10T13:01:17;18.30;62.70
11140;DHT22;5624;49.388;11.350;2023-05-10T13:03:42;18.20;61.80
11140;DHT22;5624;49.388;11.350;2023-05-10T13:06:08;18.20;61.80
11140;DHT22;5624;49.388;11.350;2023-05-10T13:08:34;18.30;60.40
11140;DHT22;5624;49.388;11.350;2023-05-10T13:11:01;18.50;61.40
11140;DHT22;5624;49.388;11.350;2023-05-10T13:13:27;18.60;59.20
11140;DHT22;5624;49.388;11.350;2023-05-10T13:15:52;18.60;59.00
11140;DHT22;5624;49.388;11.350;2023-05-10T13:18:18;18.70;58.60
11140;DHT22;5624;49.388;11.350;2023-05-10T13:20:43;18.80;59.50
11140;DHT22;5624;49.388;11.350;2023-05-10T13:23:10;18.90;59.70
11140;DHT22;5624;49.388;11.350;2023-05-10T13:25:36;19.00;59.20
11140;DHT22;5624;49.388;11.350;2023-05-10T13:28:01;18.90;58.90
11140;DHT22;5624;49.388;11.350;2023-05-10T13:30:27;19.00;57.20
11140;DHT22;5624;49.388;11.350;2023-05-10T13:32:54;19.00;56.50
11140;DHT22;5624;49.388;11.350;2023-05-10T13:35:20;18.80;56.10
11140;DHT22;5624;49.388;11.350;2023-05-10T13:37:45;18.60;56.00
11140;DHT22;5624;49.388;11.350;2023-05-10T13:40:11;18.80;56.20
11140;DHT22;5624;49.388;11.350;2023-05-10T13:42:37;18.70;56.60
11140;DHT22;5624;49.388;11.350;2023-05-10T13:45:03;18.70;55.50
11140;DHT22;5624;49.388;11.350;2023-05-10T13:47:29;18.60;55.30
11140;DHT22;5624;49.388;11.350;2023-05-10T13:49:54;18.50;55.30
11140;DHT22;5624;49.388;11.350;2023-05-10T13:52:20;18.50;55.70
11140;DHT22;5624;49.388;11.350;2023-05-10T13:54:46;18.60;55.60
11140;DHT22;5624;49.388;11.350;2023-05-10T13:57:12;18.60;56.50
11140;DHT22;5624;49.388;11.350;2023-05-10T13:59:39;18.80;56.70
11140;DHT22;5624;49.388;11.350;2023-05-10T14:02:05;19.00;56.20
11140;DHT22;5624;49.388;11.350;2023-05-10T14:04:31;19.00;56.50
11140;DHT22;5624;49.388;11.350;2023-05-10T14:06:57;19.10;56.60
11140;DHT22;5624;49.388;11.350;2023-05-10T14:09:22;19.20;56.90
11140;DHT22;5624;49.388;11.350;2023-05-10T14:11:48;19.40;55.10
11140;DHT22;5624;49.388;11.350;2023-05-10T14:14:13;19.40;53.90
11140;DHT22;5624;49.388;11.350;2023-05-10T14:16:43;19.40;55.80
11140;DHT22;5624;49.388;11.350;2023-05-10T14:19:09;19.70;54.70
11140;DHT22;5624;49.388;11.350;2023-05-10T14:21:35;19.80;54.70
11140;DHT22;5624;49.388;11.350;2023-05-10T14:24:00;19.90;54.40
11140;DHT22;5624;49.388;11.350;2023-05-10T14:26:26;19.90;54.40
11140;DHT22;5624;49.388;11.350;2023-05-10T14:28:52;19.60;54.40
11140;DHT22;5624;49.388;11.350;2023-05-10T14:31:18;19.50;55.40
11140;DHT22;5624;49.388;11.350;2023-05-10T14:33:48;19.50;58.00
11140;DHT22;5624;49.388;11.350;2023-05-10T14:36:14;19.30;56.60
11140;DHT22;5624;49.388;11.350;2023-05-10T14:38:40;19.20;57.50
11140;DHT22;5624;49.388;11.350;2023-05-10T14:41:06;19.10;58.70
11140;DHT22;5624;49.388;11.350;2023-05-10T14:43:32;19.10;58.40
11140;DHT22;5624;49.388;11.350;2023-05-10T14:45:57;19.00;58.10
11140;DHT22;5624;49.388;11.350;2023-05-10T14:48:23;18.80;58.00
11140;DHT22;5624;49.388;11.350;2023-05-10T14:50:49;18.70;58.20
11140;DHT22;5624;49.388;11.350;2023-05-10T14:53:15;18.80;57.00
11140;DHT22;5624;49.388;11.350;2023-05-10T14:55:41;18.80;56.10
11140;DHT22;5624;49.388;11.350;2023-05-10T14:58:06;18.70;55.30
11140;DHT22;5624;49.388;11.350;2023-05-10T15:00:32;18.70;57.40
11140;DHT22;5624;49.388;11.350;2023-05-10T15:02:58;18.60;57.80
11140;DHT22;5624;49.388;11.350;2023-05-10T15:05:24;18.50;57.90
11140;DHT22;5624;49.388;11.350;2023-05-10T15:07:49;18.50;57.30
11140;DHT22;5624;49.388;11.350;2023-05-10T15:10:15;18.30;58.50
11140;DHT22;5624;49.388;11.350;2023-05-10T15:12:41;18.30;59.10
11140;DHT22;5624;49.388;11.350;2023-05-10T15:15:07;18.30;61.90
11140;DHT22;5624;49.388;11.350;2023-05-10T15:17:33;17.90;64.80
11140;DHT22;5624;49.388;11.350;2023-05-10T15:19:59;17.60;67.70
11140;DHT22;5624;49.388;11.350;2023-05-10T15:22:24;17.50;69.10
11140;DHT22;5624;49.388;11.350;2023-05-10T15:24:50;17.20;70.60
11140;DHT22;5624;49.388;11.350;2023-05-10T15:27:16;16.90;72.50
11140;DHT22;5624;49.388;11.350;2023-05-10T15:29:41;16.70;73.10
11140;DHT22;5624;49.388;11.350;2023-05-10T15:32:07;16.40;74.30
11140;DHT22;5624;49.388;11.350;2023-05-10T15:34:33;16.30;75.10
11140;DHT22;5624;49.388;11.350;2023-05-10T15:36:58;16.20;75.50
11140;DHT22;5624;49.388;11.350;2023-05-10T15:39:24;16.10;76.60
11140;DHT22;5624;49.388;11.350;2023-05-10T15:41:50;16.00;76.90
11140;DHT22;5624;49.388;11.350;2023-05-10T15:44:16;15.90;75.40
11140;DHT22;5624;49.388;11.350;2023-05-10T15:46:42;15.80;76.00
11140;DHT22;5624;49.388;11.350;2023-05-10T15:49:07;15.80;76.20
11140;DHT22;5624;49.388;11.350;2023-05-10T15:51:33;15.90;76.60
11140;DHT22;5624;49.388;11.350;2023-05-10T15:53:59;15.80;77.30
11140;DHT22;5624;49.388;11.350;2023-05-10T15:56:27;15.90;77.70
11140;DHT22;5624;49.388;11.350;2023-05-10T15:58:52;15.80;77.90